Time;durP1;ratioP1;P1;durP2;ratioP2;P2;SDS_P1;SDS_P2;PMS_P1;PMS_P2;Temp;Humidity;BMP_temperature;BMP_pressure;BME280_temperature;BME280_humidity;BME280_pressure;Samples;Min_cycle;Max_cycle;Signal;HPM_P1;HPM_P2
2024/04/03 00:00:42;;;;;;;0.82;0.65;;;8.40;68.50;;;;;;4999488;28;20134;-60
2024/04/03 00:03:07;;;;;;;1.65;0.80;;;8.30;68.50;;;;;;5004555;28;20034;-59
2024/04/03 00:05:33;;;;;;;2.20;0.80;;;8.30;68.50;;;;;;5002523;28;20036;-61
2024/04/03 00:07:59;;;;;;;0.95;0.80;;;8.20;68.50;;;;;;5007701;28;20081;-61
2024/04/03 00:10:25;;;;;;;3.13;0.85;;;8.20;68.50;;;;;;5006985;28;20034;-61
2024/04/03 00:12:50;;;;;;;1.33;0.85;;;8.10;68.60;;;;;;5002390;28;20117;-60
2024/04/03 00:15:16;;;;;;;1.55;0.80;;;8.10;68.70;;;;;;5002983;28;20557;-60
2024/04/03 00:17:41;;;;;;;1.90;0.77;;;8.10;68.80;;;;;;5011173;28;20410;-61
2024/04/03 00:20:08;;;;;;;1.00;0.90;;;8.00;69.00;;;;;;5004369;28;20042;-59
2024/04/03 00:22:33;;;;;;;2.22;0.80;;;7.90;69.20;;;;;;5009548;28;20073;-62
2024/04/03 00:24:59;;;;;;;0.70;0.60;;;7.90;69.30;;;;;;5002125;28;20062;-62
2024/04/03 00:27:24;;;;;;;1.25;0.80;;;7.90;69.40;;;;;;5001725;28;20046;-61
2024/04/03 00:29:50;;;;;;;3.03;0.80;;;7.90;69.50;;;;;;5005023;28;20041;-61
2024/04/03 00:32:16;;;;;;;2.40;0.80;;;7.80;69.70;;;;;;5004635;28;20053;-61
2024/04/03 00:34:41;;;;;;;1.52;0.77;;;7.80;69.80;;;;;;4998084;28;20357;-61
2024/04/03 00:37:07;;;;;;;1.38;0.90;;;7.90;69.90;;;;;;5007338;28;20501;-60
2024/04/03 00:39:33;;;;;;;3.35;0.90;;;7.80;69.90;;;;;;5010414;28;20466;-59
2024/04/03 00:41:59;;;;;;;2.22;1.20;;;7.80;69.90;;;;;;5009574;28;20045;-60
2024/04/03 00:44:25;;;;;;;2.60;1.20;;;7.80;70.00;;;;;;5006607;28;20030;-60
2024/04/03 00:46:51;;;;;;;4.00;1.42;;;7.80;70.00;;;;;;5009057;28;20680;-61
2024/04/03 00:49:19;;;;;;;2.40;1.48;;;7.80;70.20;;;;;;5021049;28;20030;-60
2024/04/03 00:51:47;;;;;;;2.30;1.20;;;7.80;70.30;;;;;;5008650;28;20049;-61
2024/04/03 00:54:13;;;;;;;1.95;0.98;;;7.70;70.20;;;;;;5008925;28;20116;-62
2024/04/03 00:56:39;;;;;;;2.75;1.30;;;7.70;70.20;;;;;;5008347;28;20133;-61
2024/04/03 00:59:05;;;;;;;2.00;1.40;;;7.60;70.10;;;;;;5001270;28;20555;-61
2024/04/03 01:01:30;;;;;;;2.50;1.33;;;7.60;70.20;;;;;;5009982;28;20117;-61
2024/04/03 01:03:56;;;;;;;1.73;1.00;;;7.60;70.50;;;;;;5006466;28;20100;-60
2024/04/03 01:06:21;;;;;;;1.73;1.00;;;7.60;70.40;;;;;;5006099;28;20046;-61
2024/04/03 01:08:47;;;;;;;2.45;1.40;;;7.50;70.40;;;;;;5009773;28;20040;-61
2024/04/03 01:11:13;;;;;;;1.60;1.40;;;7.50;70.60;;;;;;5008471;28;20465;-61
2024/04/03 01:13:38;;;;;;;2.35;1.38;;;7.50;70.50;;;;;;5006467;28;20494;-60
2024/04/03 01:16:07;;;;;;;2.55;1.50;;;7.50;70.80;;;;;;5004347;28;20034;-61
2024/04/03 01:18:32;;;;;;;2.40;1.42;;;7.50;70.70;;;;;;5011973;28;20375;-61
2024/04/03 01:20:58;;;;;;;2.53;1.25;;;7.40;70.60;;;;;;5008989;28;20084;-61
2024/04/03 01:23:24;;;;;;;2.33;1.35;;;7.40;70.60;;;;;;5009604;28;20026;-61
2024/04/03 01:25:50;;;;;;;3.38;1.30;;;7.40;70.70;;;;;;5007879;28;20109;-61
2024/04/03 01:28:17;;;;;;;1.52;1.08;;;7.40;70.70;;;;;;5008353;28;20497;-59
2024/04/03 01:30:43;;;;;;;4.63;1.10;;;7.40;70.70;;;;;;5010724;28;20039;-61
2024/04/03 01:33:08;;;;;;;1.50;1.25;;;7.30;70.80;;;;;;5004307;28;20045;-61
2024/04/03 01:35:34;;;;;;;1.77;1.10;;;7.30;70.90;;;;;;5005324;28;20081;-59
2024/04/03 01:37:59;;;;;;;2.22;1.30;;;7.30;70.80;;;;;;5006956;28;20034;-61
2024/04/03 01:40:25;;;;;;;2.05;0.93;;;7.30;70.80;;;;;;5007774;28;20114;-61
2024/04/03 01:42:51;;;;;;;3.15;1.05;;;7.20;70.90;;;;;;5012425;28;20400;-60
2024/04/03 01:45:17;;;;;;;1.90;1.08;;;7.20;70.90;;;;;;5005706;28;20049;-62
2024/04/03 01:47:43;;;;;;;1.52;0.85;;;7.10;70.90;;;;;;5005632;28;20465;-60
2024/04/03 01:50:11;;;;;;;2.15;1.00;;;7.10;70.90;;;;;;5009126;28;20045;-62
2024/04/03 01:52:36;;;;;;;1.65;1.05;;;7.10;71.10;;;;;;5010245;28;20037;-61
2024/04/03 01:55:02;;;;;;;4.50;1.10;;;7.00;71.00;;;;;;5010454;28;20026;-61
2024/04/03 01:57:28;;;;;;;1.48;0.80;;;6.90;71.10;;;;;;5009957;28;20538;-61
2024/04/03 01:59:53;;;;;;;1.48;0.93;;;6.90;71.30;;;;;;5001725;28;20417;-62
2024/04/03 02:02:19;;;;;;;1.40;1.00;;;6.90;71.30;;;;;;5011123;28;20264;-61
2024/04/03 02:04:44;;;;;;;2.05;1.30;;;6.80;71.30;;;;;;5009511;28;20120;-61
2024/04/03 02:07:10;;;;;;;1.98;1.17;;;6.80;71.40;;;;;;5009933;28;20397;-62
2024/04/03 02:09:36;;;;;;;2.17;1.40;;;6.70;71.40;;;;;;5008002;28;20035;-61
2024/04/03 02:12:06;;;;;;;2.22;1.63;;;6.70;71.60;;;;;;5003698;28;20249;-59
2024/04/03 02:14:31;;;;;;;2.72;1.80;;;6.60;71.60;;;;;;5009914;28;20529;-61
2024/04/03 02:16:57;;;;;;;3.92;1.70;;;6.60;71.60;;;;;;5001957;28;20038;-60
2024/04/03 02:19:23;;;;;;;1.92;1.60;;;6.60;71.70;;;;;;5004839;28;20092;-62
2024/04/03 02:21:48;;;;;;;4.13;1.50;;;6.50;71.90;;;;;;5000043;28;20117;-62
2024/04/03 02:24:14;;;;;;;2.35;1.38;;;6.50;71.90;;;;;;5004046;28;20607;-61
2024/04/03 02:26:39;;;;;;;3.30;1.30;;;6.40;71.90;;;;;;5009309;28;20088;-61
2024/04/03 02:29:05;;;;;;;4.50;2.42;;;6.50;72.00;;;;;;5002502;28;20405;-60
2024/04/03 02:31:31;;;;;;;7.05;3.10;;;6.40;72.10;;;;;;5005157;28;20050;-59
2024/04/03 02:33:56;;;;;;;5.40;2.88;;;6.40;72.10;;;;;;5006996;28;20494;-59
2024/04/03 02:36:22;;;;;;;4.78;2.40;;;6.30;72.10;;;;;;4999738;28;20712;-62
2024/04/03 02:38:48;;;;;;;3.47;2.20;;;6.30;72.20;;;;;;5006982;28;20041;-62
2024/04/03 02:41:15;;;;;;;5.65;2.90;;;6.20;72.20;;;;;;4999203;28;20073;-62
2024/04/03 02:43:41;;;;;;;5.50;2.70;;;6.20;72.30;;;;;;4999607;28;20085;-60
2024/04/03 02:46:07;;;;;;;4.63;2.17;;;6.20;72.40;;;;;;5000123;28;20782;-61
2024/04/03 02:48:33;;;;;;;5.70;2.47;;;6.10;72.40;;;;;;5003973;28;20433;-61
2024/04/03 02:51:11;;;;;;;8.18;3.15;;;6.10;72.60;;;;;;5008045;28;20084;-62
2024/04/03 02:53:37;;;;;;;17.05;6.60;;;6.10;73.20;;;;;;5007781;28;20304;-61
2024/04/03 02:56:05;;;;;;;13.35;5.20;;;6.10;72.90;;;;;;5001945;28;20034;-60
2024/04/03 02:58:30;;;;;;;11.15;5.13;;;6.00;73.20;;;;;;5005125;28;20026;-61
2024/04/03 03:01:03;;;;;;;10.88;4.55;;;6.00;73.30;;;;;;5001982;28;20167;-61
2024/04/03 03:03:31;;;;;;;16.63;6.28;;;5.90;73.40;;;;;;5005449;28;20505;-61
2024/04/03 03:06:02;;;;;;;18.33;7.15;;;5.90;73.50;;;;;;5008584;28;20117;-61
2024/04/03 03:08:29;;;;;;;19.08;7.90;;;5.90;73.70;;;;;;5007752;28;20045;-61
2024/04/03 03:10:55;;;;;;;29.42;10.80;;;5.90;73.60;;;;;;5009643;28;20505;-60
2024/04/03 03:13:22;;;;;;;22.27;8.05;;;5.90;73.70;;;;;;5006909;28;20533;-61
2024/04/03 03:15:54;;;;;;;17.08;6.07;;;5.90;73.80;;;;;;5002559;28;20060;-62
2024/04/03 03:18:24;;;;;;;10.18;4.68;;;5.90;74.40;;;;;;4998273;28;20616;-61
2024/04/03 03:20:50;;;;;;;22.50;7.82;;;5.80;74.10;;;;;;5003578;28;20152;-62
2024/04/03 03:23:16;;;;;;;25.27;9.00;;;5.80;74.10;;;;;;5007685;28;20572;-62
2024/04/03 03:25:44;;;;;;;17.83;7.07;;;5.80;74.40;;;;;;5002468;28;20034;-61
2024/04/03 03:28:10;;;;;;;11.25;5.68;;;5.80;74.50;;;;;;4996329;28;20042;-60
2024/04/03 03:30:36;;;;;;;9.68;4.22;;;5.90;74.50;;;;;;5000580;28;20041;-61
2024/04/03 03:33:02;;;;;;;5.65;3.42;;;5.90;75.30;;;;;;5003533;28;20378;-61
2024/04/03 03:35:28;;;;;;;4.22;2.80;;;5.90;74.50;;;;;;4999075;28;20038;-59
2024/04/03 03:37:53;;;;;;;10.57;3.10;;;6.00;74.50;;;;;;4999014;28;20030;-61
2024/04/03 03:40:19;;;;;;;6.10;2.80;;;6.00;74.50;;;;;;5000332;28;20398;-61
2024/04/03 03:42:45;;;;;;;4.63;2.85;;;6.00;74.50;;;;;;4998753;28;20041;-60
2024/04/03 03:45:17;;;;;;;9.05;4.18;;;6.00;74.30;;;;;;4999267;28;20038;-59
2024/04/03 03:47:43;;;;;;;9.50;4.28;;;6.00;74.50;;;;;;4998215;28;20563;-62
2024/04/03 03:52:57;;;;;;;8.40;3.55;;;6.00;75.20;;;;;;4987674;28;20030;-61
2024/04/03 03:55:29;;;;;;;11.77;4.50;;;6.00;74.30;;;;;;5002693;28;20038;-61
2024/04/03 03:57:55;;;;;;;9.93;4.93;;;6.00;74.60;;;;;;5002614;28;20245;-61
2024/04/03 04:00:21;;;;;;;9.25;4.43;;;6.00;74.60;;;;;;5000066;28;20446;-61
2024/04/03 04:02:47;;;;;;;7.78;3.85;;;6.00;74.80;;;;;;5000500;28;20030;-62
2024/04/03 04:05:12;;;;;;;8.35;3.50;;;6.00;74.90;;;;;;5005390;28;20521;-59
2024/04/03 04:07:38;;;;;;;8.15;3.92;;;6.00;76.10;;;;;;5000476;28;20034;-61
2024/04/03 04:10:04;;;;;;;8.13;3.90;;;6.00;75.30;;;;;;5008779;28;20045;-61
2024/04/03 04:12:30;;;;;;;9.90;4.90;;;6.00;75.50;;;;;;5010288;28;20038;-62
2024/04/03 04:14:55;;;;;;;7.45;3.75;;;6.00;75.40;;;;;;5005195;28;20054;-61
2024/04/03 04:17:22;;;;;;;7.80;3.60;;;6.10;75.70;;;;;;5011763;28;20026;-61
2024/04/03 04:19:49;;;;;;;6.78;3.35;;;6.10;75.80;;;;;;5004818;28;20623;-59
2024/04/03 04:22:15;;;;;;;8.00;3.60;;;6.10;76.00;;;;;;5003522;28;20125;-61
2024/04/03 04:24:43;;;;;;;5.05;3.15;;;6.10;76.00;;;;;;5004498;28;20125;-62
2024/04/03 04:27:09;;;;;;;5.78;2.72;;;6.20;76.00;;;;;;5002876;28;20582;-59
2024/04/03 04:29:36;;;;;;;6.93;3.20;;;6.30;76.20;;;;;;5002875;28;20034;-61
2024/04/03 04:32:05;;;;;;;7.90;3.55;;;6.20;76.20;;;;;;5009967;28;20052;-60
2024/04/03 04:34:31;;;;;;;7.88;3.55;;;6.30;76.20;;;;;;5012711;28;20034;-60
2024/04/03 04:36:57;;;;;;;13.27;7.00;;;6.30;76.10;;;;;;5009749;28;20037;-61
2024/04/03 04:39:22;;;;;;;14.95;7.03;;;6.30;76.10;;;;;;5011446;28;20033;-61
2024/04/03 04:41:52;;;;;;;16.83;8.57;;;6.30;76.10;;;;;;5017965;28;20412;-61
2024/04/03 04:44:21;;;;;;;17.58;7.50;;;6.30;76.10;;;;;;5011541;28;20037;-61
2024/04/03 04:46:51;;;;;;;17.60;8.77;;;6.40;76.10;;;;;;5014101;28;20505;-56
2024/04/03 04:49:18;;;;;;;15.88;8.13;;;6.40;76.10;;;;;;5011256;28;20045;-62
2024/04/03 04:51:44;;;;;;;13.88;6.65;;;6.50;76.90;;;;;;5013370;28;20598;-61
2024/04/03 04:54:11;;;;;;;9.15;4.25;;;6.40;76.00;;;;;;5007536;28;20076;-61
2024/04/03 04:56:37;;;;;;;8.93;4.47;;;6.50;76.00;;;;;;5010202;28;20061;-62
2024/04/03 04:59:03;;;;;;;8.57;5.00;;;6.60;76.00;;;;;;5017344;28;20460;-61
2024/04/03 05:01:28;;;;;;;10.07;5.30;;;6.60;76.00;;;;;;5011550;28;20034;-61
2024/04/03 05:03:54;;;;;;;8.82;4.35;;;6.60;76.20;;;;;;5013877;28;21797;-61
2024/04/03 05:06:21;;;;;;;9.50;4.43;;;6.60;76.00;;;;;;5005668;28;20057;-61
2024/04/03 05:08:47;;;;;;;7.75;4.50;;;6.70;76.20;;;;;;5013151;28;20037;-62
2024/04/03 05:11:12;;;;;;;10.00;4.53;;;6.70;76.20;;;;;;5011270;28;20054;-61
2024/04/03 05:13:38;;;;;;;11.00;4.63;;;6.70;76.30;;;;;;5012448;28;20092;-58
2024/04/03 05:16:05;;;;;;;5.93;3.90;;;6.80;76.70;;;;;;5011863;28;20034;-61
2024/04/03 05:18:31;;;;;;;9.27;4.20;;;6.80;76.50;;;;;;5015254;28;20520;-60
2024/04/03 05:20:56;;;;;;;8.38;4.32;;;6.80;76.30;;;;;;5008852;28;20045;-60
2024/04/03 05:23:22;;;;;;;12.10;6.72;;;6.80;76.30;;;;;;5010888;28;20054;-56
2024/04/03 05:25:56;;;;;;;12.23;6.03;;;6.90;76.20;;;;;;5012898;28;20037;-61
2024/04/03 05:28:22;;;;;;;7.73;4.97;;;6.90;76.50;;;;;;5009184;28;20065;-61
2024/04/03 05:30:47;;;;;;;8.30;4.40;;;6.90;76.20;;;;;;5014922;28;20679;-62
2024/04/03 05:33:13;;;;;;;7.15;3.38;;;6.90;76.20;;;;;;5011400;28;20062;-61
2024/04/03 05:35:38;;;;;;;2.97;2.67;;;6.90;76.30;;;;;;5012722;28;20026;-61
2024/04/03 05:38:04;;;;;;;6.28;3.00;;;6.90;76.30;;;;;;5010540;28;20057;-60
2024/04/03 05:40:29;;;;;;;3.03;2.42;;;6.90;76.30;;;;;;5008986;28;20054;-60
2024/04/03 05:42:56;;;;;;;9.75;3.05;;;6.90;76.40;;;;;;5008972;28;20749;-60
2024/04/03 05:45:22;;;;;;;5.15;3.28;;;6.90;76.50;;;;;;5010486;28;20037;-61
2024/04/03 05:47:48;;;;;;;4.57;2.70;;;6.90;76.80;;;;;;5009432;28;20040;-61
2024/04/03 05:50:14;;;;;;;5.32;2.83;;;6.90;77.00;;;;;;5012313;28;20413;-61
2024/04/03 05:52:40;;;;;;;3.20;2.47;;;7.00;77.30;;;;;;5014526;28;20105;-61
2024/04/03 05:55:06;;;;;;;5.60;3.28;;;6.90;77.40;;;;;;5014378;28;20458;-61
2024/04/03 05:57:31;;;;;;;4.53;3.10;;;6.90;77.80;;;;;;5016261;28;20030;-61
2024/04/03 05:59:57;;;;;;;5.60;2.85;;;7.00;77.90;;;;;;5009666;28;20037;-60
2024/04/03 06:02:23;;;;;;;7.60;3.20;;;7.00;77.90;;;;;;5008912;28;20037;-60
2024/04/03 06:04:48;;;;;;;7.38;3.15;;;7.00;78.40;;;;;;5008462;28;20033;-60
2024/04/03 06:07:14;;;;;;;8.15;2.67;;;7.00;78.40;;;;;;5011662;28;20034;-59
2024/04/03 06:09:41;;;;;;;9.50;2.80;;;7.00;79.30;;;;;;5015892;28;20041;-60
2024/04/03 06:12:07;;;;;;;6.25;3.20;;;7.00;78.60;;;;;;5011804;28;20046;-61
2024/04/03 06:14:32;;;;;;;6.18;2.70;;;7.10;78.70;;;;;;5013188;28;20120;-61
2024/04/03 06:16:58;;;;;;;4.22;2.70;;;7.10;78.80;;;;;;5012993;28;20033;-60
2024/04/03 06:19:24;;;;;;;5.05;2.47;;;7.20;78.90;;;;;;5010752;28;20041;-61
2024/04/03 06:21:49;;;;;;;6.70;2.70;;;7.20;78.80;;;;;;5012639;28;20537;-61
2024/04/03 06:24:15;;;;;;;6.65;2.15;;;7.30;78.80;;;;;;5010929;28;20472;-61
2024/04/03 06:26:40;;;;;;;3.92;2.40;;;7.40;78.90;;;;;;5012941;28;20040;-61
2024/04/03 06:29:06;;;;;;;8.52;2.78;;;7.40;78.90;;;;;;5011762;28;20030;-62
2024/04/03 06:31:32;;;;;;;4.70;2.97;;;7.50;78.70;;;;;;5008735;28;20049;-61
2024/04/03 06:33:59;;;;;;;3.30;2.03;;;7.60;78.80;;;;;;5008812;28;20029;-61
2024/04/03 06:36:26;;;;;;;2.15;1.90;;;7.60;78.70;;;;;;5009671;28;20038;-61
2024/04/03 06:38:52;;;;;;;2.20;1.95;;;7.70;78.80;;;;;;5013382;28;20048;-61
2024/04/03 06:41:17;;;;;;;4.63;2.67;;;7.80;79.70;;;;;;5012087;28;20037;-61
2024/04/03 06:43:43;;;;;;;2.58;2.20;;;7.90;78.80;;;;;;5011005;28;20034;-61
2024/04/03 06:46:09;;;;;;;3.17;1.95;;;7.90;78.80;;;;;;5013320;28;20100;-61
2024/04/03 06:48:35;;;;;;;3.35;2.72;;;8.00;78.90;;;;;;5008245;28;20093;-62
2024/04/03 06:51:01;;;;;;;6.63;3.75;;;8.00;78.70;;;;;;5012062;28;20095;-61
2024/04/03 06:53:26;;;;;;;3.80;3.03;;;8.10;79.00;;;;;;5006598;28;20050;-61
2024/04/03 06:55:56;;;;;;;11.75;5.93;;;8.10;78.90;;;;;;5012449;28;20037;-61
2024/04/03 06:58:22;;;;;;;8.15;4.57;;;8.20;78.90;;;;;;5008574;28;20518;-61
2024/04/03 07:00:47;;;;;;;3.75;3.00;;;8.20;78.60;;;;;;5010055;28;20044;-61
2024/04/03 07:03:13;;;;;;;5.75;3.08;;;8.30;78.60;;;;;;5010746;28;20046;-61
2024/04/03 07:05:39;;;;;;;6.15;2.40;;;8.30;78.40;;;;;;5016878;28;20113;-61
2024/04/03 07:08:06;;;;;;;3.00;2.38;;;8.40;78.40;;;;;;5008806;28;20038;-61
2024/04/03 07:10:32;;;;;;;2.00;1.77;;;8.50;78.20;;;;;;5011159;28;20388;-61
2024/04/03 07:13:00;;;;;;;3.33;1.85;;;8.60;78.10;;;;;;5008874;28;20034;-61
2024/04/03 07:15:29;;;;;;;2.85;1.63;;;8.60;78.00;;;;;;5011083;28;20300;-61
2024/04/03 07:17:54;;;;;;;2.53;1.67;;;8.70;77.70;;;;;;5011179;28;20120;-61
2024/04/03 07:20:24;;;;;;;3.47;1.67;;;8.80;77.50;;;;;;5008601;28;20160;-62
2024/04/03 07:22:51;;;;;;;3.92;1.55;;;8.80;77.30;;;;;;5008179;28;20045;-61
2024/04/03 07:25:16;;;;;;;3.28;1.85;;;8.80;77.20;;;;;;5010058;28;20599;-62
2024/04/03 07:27:44;;;;;;;3.72;2.03;;;8.90;77.20;;;;;;5011207;28;20125;-61
2024/04/03 07:30:10;;;;;;;4.60;1.92;;;8.90;77.20;;;;;;5010857;28;20037;-62
2024/04/03 07:32:36;;;;;;;5.20;2.45;;;9.00;77.00;;;;;;5009562;28;20030;-62
2024/04/03 07:35:01;;;;;;;7.63;3.45;;;9.00;77.00;;;;;;5012207;28;20033;-62
2024/04/03 07:37:27;;;;;;;6.85;3.80;;;9.10;77.00;;;;;;5012619;28;20030;-61
2024/04/03 07:39:53;;;;;;;7.28;4.38;;;9.10;77.10;;;;;;5010149;28;20036;-61
2024/04/03 07:42:18;;;;;;;4.22;3.00;;;9.20;77.10;;;;;;5014998;28;20068;-62
2024/04/03 07:44:44;;;;;;;10.63;2.92;;;9.20;78.00;;;;;;5006313;28;20054;-61
2024/04/03 07:47:10;;;;;;;8.27;3.63;;;9.30;76.90;;;;;;5014980;28;20026;-62
2024/04/03 07:49:35;;;;;;;4.03;2.40;;;9.30;76.80;;;;;;5013027;28;20160;-62
2024/04/03 07:52:01;;;;;;;4.85;2.85;;;9.40;76.80;;;;;;5009099;28;20146;-61
2024/04/03 07:54:27;;;;;;;4.18;2.10;;;9.40;77.00;;;;;;5012518;28;20484;-61
2024/04/03 07:56:52;;;;;;;2.75;1.80;;;9.40;76.90;;;;;;5003180;28;20038;-62
2024/04/03 07:59:18;;;;;;;4.57;1.48;;;9.50;77.00;;;;;;5014199;28;20038;-62
2024/04/03 08:01:44;;;;;;;2.50;1.50;;;9.50;76.80;;;;;;5005099;28;20091;-62
2024/04/03 08:04:09;;;;;;;2.00;1.30;;;9.50;76.30;;;;;;5007448;28;20528;-61
2024/04/03 08:06:35;;;;;;;1.60;1.42;;;9.60;76.10;;;;;;5012926;28;20030;-61
2024/04/03 08:09:01;;;;;;;1.65;1.13;;;9.60;76.10;;;;;;5004402;28;20084;-62
2024/04/03 08:11:26;;;;;;;1.42;1.20;;;9.70;76.20;;;;;;5008971;28;20124;-61
2024/04/03 08:13:52;;;;;;;2.28;1.60;;;9.70;76.10;;;;;;5014016;28;20044;-61
2024/04/03 08:16:18;;;;;;;3.22;1.67;;;9.70;76.30;;;;;;5008658;28;20434;-61
2024/04/03 08:18:44;;;;;;;1.40;1.20;;;9.70;76.30;;;;;;5010741;28;20585;-62
2024/04/03 08:21:10;;;;;;;1.92;1.50;;;9.80;77.20;;;;;;5006642;28;20034;-62
2024/04/03 08:23:36;;;;;;;3.05;1.30;;;9.80;76.10;;;;;;5008207;28;20060;-62
2024/04/03 08:26:07;;;;;;;1.33;1.10;;;9.90;76.10;;;;;;5006300;28;20186;-61
2024/04/03 08:28:38;;;;;;;2.55;0.90;;;9.90;76.10;;;;;;5007688;28;20066;-61
2024/04/03 08:31:10;;;;;;;4.70;1.33;;;10.00;75.80;;;;;;5007424;28;20084;-62
2024/04/03 08:33:35;;;;;;;2.63;1.50;;;10.10;75.60;;;;;;5007108;28;20034;-61
2024/04/03 08:36:02;;;;;;;2.15;1.02;;;10.20;75.60;;;;;;5006283;28;20030;-60
2024/04/03 08:38:28;;;;;;;3.35;1.10;;;10.30;75.50;;;;;;5012235;28;20133;-62
2024/04/03 08:40:59;;;;;;;2.35;1.20;;;10.50;75.50;;;;;;5008716;28;20133;-62
2024/04/03 08:43:25;;;;;;;2.50;1.27;;;10.60;75.50;;;;;;5008732;28;20041;-62
2024/04/03 08:45:53;;;;;;;4.28;1.40;;;10.70;75.20;;;;;;5009045;28;20033;-62
2024/04/03 08:48:22;;;;;;;1.80;1.20;;;10.80;75.00;;;;;;5008330;28;20045;-62
2024/04/03 08:50:55;;;;;;;2.88;1.30;;;10.90;74.90;;;;;;5007114;28;20064;-62
2024/04/03 08:53:23;;;;;;;1.27;0.93;;;11.00;75.10;;;;;;5004742;28;20030;-61
2024/04/03 08:55:53;;;;;;;2.55;1.10;;;11.10;75.00;;;;;;5010177;28;20397;-62
2024/04/03 08:58:20;;;;;;;3.03;1.10;;;11.20;75.00;;;;;;5010981;28;20030;-62
2024/04/03 09:00:46;;;;;;;1.20;1.00;;;11.30;74.90;;;;;;5014474;28;20451;-62
2024/04/03 09:03:13;;;;;;;2.70;1.00;;;11.40;74.70;;;;;;5006826;28;20034;-61
2024/04/03 09:05:39;;;;;;;2.00;1.00;;;11.60;74.60;;;;;;5018944;28;20559;-61
2024/04/03 09:08:07;;;;;;;0.93;0.70;;;11.70;74.20;;;;;;5008135;28;20042;-62
2024/04/03 09:10:49;;;;;;;4.28;0.88;;;11.70;73.80;;;;;;5009747;28;20038;-61
2024/04/03 09:13:18;;;;;;;1.30;0.80;;;11.90;73.50;;;;;;5012478;28;20054;-61
2024/04/03 09:15:44;;;;;;;1.15;0.80;;;12.00;73.10;;;;;;5012349;28;20032;-60
2024/04/03 09:18:10;;;;;;;1.60;0.65;;;12.10;72.80;;;;;;5014683;28;20030;-60
2024/04/03 09:20:40;;;;;;;1.08;0.60;;;12.20;72.60;;;;;;5014510;28;20113;-60
2024/04/03 09:23:09;;;;;;;2.08;0.60;;;12.30;72.00;;;;;;5014450;28;20040;-61
2024/04/03 09:25:35;;;;;;;2.55;0.75;;;12.40;72.10;;;;;;5013573;28;20128;-61
2024/04/03 09:28:05;;;;;;;2.67;1.00;;;12.50;72.00;;;;;;5008276;28;20035;-61
2024/04/03 09:30:33;;;;;;;1.52;0.70;;;12.70;71.90;;;;;;5015792;28;20033;-62
2024/04/03 09:33:03;;;;;;;1.63;0.90;;;12.80;71.60;;;;;;5014168;28;20053;-61
2024/04/03 09:35:32;;;;;;;0.93;0.70;;;12.90;71.40;;;;;;5009296;28;20026;-60
2024/04/03 09:37:58;;;;;;;2.35;0.80;;;13.00;71.10;;;;;;5014208;28;20034;-59
2024/04/03 09:40:28;;;;;;;2.65;0.63;;;13.10;70.60;;;;;;5012120;28;20080;-60
2024/04/03 09:42:57;;;;;;;0.90;0.80;;;13.20;69.80;;;;;;5006555;28;20030;-60
2024/04/03 09:45:24;;;;;;;1.42;0.85;;;13.30;70.70;;;;;;5013277;28;20041;-60
2024/04/03 09:48:10;;;;;;;1.95;0.90;;;13.40;69.80;;;;;;5012022;28;20120;-60
2024/04/03 09:50:42;;;;;;;0.50;0.40;;;13.50;68.90;;;;;;5007593;28;20116;-61
2024/04/03 09:53:30;;;;;;;0.32;0.20;;;13.60;68.30;;;;;;5005034;28;20035;-60
2024/04/03 09:55:56;;;;;;;2.10;0.32;;;13.70;67.00;;;;;;5012676;28;20034;-60
2024/04/03 09:58:26;;;;;;;0.40;0.20;;;13.80;67.60;;;;;;5007702;28;20045;-59
2024/04/03 10:00:54;;;;;;;2.05;0.20;;;13.90;67.40;;;;;;5011735;28;20499;-60
2024/04/03 10:03:32;;;;;;;0.63;0.20;;;14.00;65.10;;;;;;5014017;28;20038;-59
2024/04/03 10:06:09;;;;;;;0.85;0.30;;;14.10;64.50;;;;;;5014576;28;20039;-60
2024/04/03 10:08:38;;;;;;;2.75;0.25;;;14.20;63.90;;;;;;5008108;28;20125;-61
2024/04/03 10:11:11;;;;;;;0.10;0.10;;;14.30;63.60;;;;;;5008381;28;20029;-61
2024/04/03 10:13:41;;;;;;;0.35;0.20;;;14.40;63.40;;;;;;5017602;28;20034;-59
2024/04/03 10:16:07;;;;;;;0.15;0.10;;;14.50;63.10;;;;;;5009362;28;20029;-61
2024/04/03 10:18:38;;;;;;;1.30;0.20;;;14.60;64.10;;;;;;5009257;28;20112;-60
2024/04/03 10:21:05;;;;;;;0.65;0.30;;;14.60;62.40;;;;;;5011889;28;20041;-61
2024/04/03 10:23:42;;;;;;;0.50;0.30;;;14.70;62.40;;;;;;5011514;28;20101;-61
2024/04/03 10:26:12;;;;;;;0.28;0.10;;;14.80;61.10;;;;;;5015846;28;20037;-58
2024/04/03 10:28:39;;;;;;;0.70;0.17;;;14.80;60.80;;;;;;5008101;28;20030;-58
2024/04/03 10:31:09;;;;;;;0.30;0.10;;;14.80;61.70;;;;;;5009619;28;20452;-61
2024/04/03 10:33:35;;;;;;;0.82;0.30;;;14.90;61.50;;;;;;5011189;28;20493;-62
2024/04/03 10:36:01;;;;;;;0.85;0.20;;;14.90;61.40;;;;;;5008479;28;20060;-61
2024/04/03 10:38:27;;;;;;;0.10;0.10;;;15.00;61.30;;;;;;5013940;28;20044;-59
2024/04/03 10:40:55;;;;;;;0.57;0.10;;;15.10;61.20;;;;;;5008730;28;20421;-60
2024/04/03 10:43:21;;;;;;;0.43;0.20;;;15.10;61.30;;;;;;5007934;28;20044;-58
2024/04/03 10:45:48;;;;;;;1.38;0.20;;;15.20;60.50;;;;;;5011773;28;20413;-60
2024/04/03 10:48:13;;;;;;;0.70;0.20;;;15.20;59.80;;;;;;5008411;28;20038;-60
2024/04/03 10:50:40;;;;;;;1.35;0.13;;;15.20;59.40;;;;;;5013356;28;20440;-59
2024/04/03 10:53:09;;;;;;;0.35;0.10;;;15.30;59.40;;;;;;5011816;28;20030;-61
2024/04/03 10:55:36;;;;;;;3.05;0.20;;;15.30;59.70;;;;;;5007041;28;20500;-60
2024/04/03 10:58:07;;;;;;;0.22;0.10;;;15.40;59.30;;;;;;5015725;28;20580;-59
2024/04/03 11:00:37;;;;;;;0.43;0.10;;;15.40;59.10;;;;;;5012587;28;20141;-58
2024/04/03 11:03:04;;;;;;;0.85;0.30;;;15.40;58.60;;;;;;5013737;28;20029;-61
2024/04/03 11:05:31;;;;;;;1.92;0.28;;;15.50;58.70;;;;;;5007612;28;20121;-59
2024/04/03 11:07:57;;;;;;;2.67;0.20;;;15.50;59.00;;;;;;5007217;28;20370;-61
2024/04/03 11:10:24;;;;;;;0.57;0.13;;;15.50;58.00;;;;;;5011799;28;20539;-62
2024/04/03 11:13:01;;;;;;;0.60;0.20;;;15.50;58.10;;;;;;5012270;28;20033;-61
2024/04/03 11:15:26;;;;;;;0.40;0.20;;;15.50;58.80;;;;;;5008655;28;20033;-60
2024/04/03 11:17:52;;;;;;;1.02;0.40;;;15.50;59.10;;;;;;5010238;28;20378;-60
2024/04/03 11:20:17;;;;;;;0.80;0.20;;;15.50;58.70;;;;;;5008686;28;20068;-61
2024/04/03 11:22:43;;;;;;;0.47;0.28;;;15.50;58.20;;;;;;5009656;28;20542;-61
2024/04/03 11:25:12;;;;;;;0.50;0.30;;;15.50;57.90;;;;;;5013566;28;20436;-62
2024/04/03 11:27:39;;;;;;;0.70;0.25;;;15.40;58.00;;;;;;5009950;28;20059;-59
2024/04/03 11:30:06;;;;;;;2.33;0.20;;;15.40;58.60;;;;;;5010980;28;20030;-62
2024/04/03 11:32:32;;;;;;;0.38;0.20;;;15.30;58.50;;;;;;5007134;28;20121;-59
2024/04/03 11:34:58;;;;;;;0.55;0.30;;;15.30;58.70;;;;;;5007979;28;20038;-61
2024/04/03 11:37:23;;;;;;;1.13;0.40;;;15.20;58.90;;;;;;5014286;28;20036;-61
2024/04/03 11:39:49;;;;;;;0.20;0.20;;;15.10;60.10;;;;;;5007399;28;20596;-61
2024/04/03 11:42:15;;;;;;;0.82;0.47;;;15.00;60.00;;;;;;5010078;28;20512;-59
2024/04/03 11:44:41;;;;;;;1.15;0.35;;;14.90;59.80;;;;;;5011703;28;20060;-62
2024/04/03 11:47:06;;;;;;;0.68;0.30;;;14.80;60.00;;;;;;5016797;28;20176;-59
2024/04/03 11:49:32;;;;;;;0.40;0.20;;;14.70;60.50;;;;;;5016007;28;20128;-60
2024/04/03 11:51:58;;;;;;;1.80;0.25;;;14.60;61.00;;;;;;5007973;28;20046;-62
2024/04/03 11:54:23;;;;;;;1.13;0.28;;;14.50;61.30;;;;;;5014447;28;20045;-62
2024/04/03 11:56:50;;;;;;;0.40;0.35;;;14.30;61.90;;;;;;5013306;28;20057;-60
2024/04/03 11:59:16;;;;;;;0.60;0.38;;;14.20;62.80;;;;;;5014884;28;20046;-61
2024/04/03 12:01:42;;;;;;;1.50;0.40;;;14.10;63.40;;;;;;5009463;28;20041;-60
2024/04/03 12:04:07;;;;;;;0.47;0.40;;;14.00;63.80;;;;;;5006433;28;20037;-61
2024/04/03 12:06:33;;;;;;;0.77;0.47;;;13.90;64.80;;;;;;5012609;28;20050;-60
2024/04/03 12:08:58;;;;;;;2.05;0.55;;;13.80;64.80;;;;;;5007666;28;20062;-60
2024/04/03 12:11:24;;;;;;;0.65;0.30;;;13.80;65.10;;;;;;5008454;28;20421;-61
2024/04/03 12:13:50;;;;;;;0.40;0.32;;;13.70;65.50;;;;;;5013604;28;20037;-61
2024/04/03 12:16:20;;;;;;;0.57;0.43;;;13.60;66.00;;;;;;5009139;28;20030;-59
2024/04/03 12:18:50;;;;;;;0.30;0.30;;;13.60;66.70;;;;;;5007885;28;20053;-60
2024/04/03 12:21:18;;;;;;;0.70;0.50;;;13.50;66.80;;;;;;4996404;28;20065;-60
2024/04/03 12:23:45;;;;;;;0.93;0.40;;;13.50;67.10;;;;;;4990276;28;20129;-59
2024/04/03 12:26:14;;;;;;;0.82;0.50;;;13.40;67.40;;;;;;4989452;28;20041;-61
2024/04/03 12:28:40;;;;;;;0.43;0.32;;;13.40;67.80;;;;;;4991445;28;20437;-60
2024/04/03 12:31:06;;;;;;;1.52;0.60;;;13.30;68.20;;;;;;4992864;28;20118;-60
2024/04/03 12:33:32;;;;;;;0.75;0.50;;;13.30;68.50;;;;;;4993228;28;20061;-61
2024/04/03 12:35:58;;;;;;;0.65;0.47;;;13.20;69.20;;;;;;4992031;28;20089;-61
2024/04/03 12:38:23;;;;;;;0.50;0.40;;;13.20;69.70;;;;;;4997939;28;20354;-59
2024/04/03 12:40:49;;;;;;;4.38;0.70;;;13.20;69.70;;;;;;4994425;28;20049;-59
2024/04/03 12:43:15;;;;;;;1.48;0.70;;;13.10;70.00;;;;;;4993180;28;20042;-61
2024/04/03 12:45:40;;;;;;;1.88;0.80;;;13.10;70.00;;;;;;4994188;28;20051;-59
2024/04/03 12:48:06;;;;;;;1.63;0.63;;;13.10;70.20;;;;;;4990643;28;20482;-61
2024/04/03 12:50:32;;;;;;;3.33;0.90;;;13.10;70.50;;;;;;4997087;28;20077;-58
2024/04/03 12:52:58;;;;;;;1.17;0.80;;;13.00;70.60;;;;;;4994817;28;20092;-59